^^
Saratoga-Weather Station Historical Data
Daily Summary for February 3, 2020 Units:  Both    English   Metric
Daily Weekly Monthly Yearly Custom
  High: Low: Average:
Temperature: 53.6 °F /  12 °C 38.7 °F /  3.7 °C 45.9 °F /  7.7 °C
Dew Point: 41.9 °F /  5.5 °C 31.1 °F /  -0.5 °C 36 °F /  2.2 °C
Humidity: 81% 55% 69%
Wind Speed: 11mph /  17.7km/h - 2.5mph /  4.1km/h
Wind Gust: 13mph /  20.9km/h - -
Wind- - West
Pressure: 30.1 in /  1020.3 hPa 29.9 in /  1013.5 hPa -
Precipitation: 0 in /  0.0 mm    
Historical Graphs
 
 
Tabular Data for February 3, 2020
Time Temperature Dew Point Pressure Wind Wind Speed Wind Gust Humidity Rainfall Rate (Hourly) solar
00:04 40.6 °F /  4.8 °C 31.6 °F /  -0.2 °C 29.9in /  1013.9hPa Calm   1mph /  1.6km/h 70% 0in /  0.0mm 0 W/m2
00:09 40.3 °F /  4.6 °C 31.6 °F /  -0.2 °C 29.9in /  1013.5hPa Calm   2mph /  3.2km/h 71% 0in /  0.0mm 0 W/m2
00:14 39.9 °F /  4.4 °C 31.6 °F /  -0.2 °C 29.9in /  1013.9hPa Calm   1mph /  1.6km/h 72% 0in /  0.0mm 0 W/m2
00:19 39.6 °F /  4.2 °C 31.3 °F /  -0.4 °C 29.9in /  1013.9hPa West 0.9mph /  1.4km/h 1mph /  1.6km/h 72% 0in /  0.0mm 0 W/m2
00:24 39.4 °F /  4.1 °C 31.5 °F /  -0.3 °C 29.9in /  1013.9hPa Calm     73% 0in /  0.0mm 0 W/m2
00:29 39 °F /  3.9 °C 31.1 °F /  -0.5 °C 29.9in /  1013.9hPa Calm     73% 0in /  0.0mm 0 W/m2
00:34 38.8 °F /  3.8 °C 31.3 °F /  -0.4 °C 29.9in /  1013.9hPa Calm     74% 0in /  0.0mm 0 W/m2
00:39 38.7 °F /  3.7 °C 31.5 °F /  -0.3 °C 30in /  1014.2hPa WNW 2mph /  3.2km/h 6mph /  9.7km/h 75% 0in /  0.0mm 0 W/m2
00:44 39.4 °F /  4.1 °C 32.2 °F /  0.1 °C 30in /  1014.2hPa NW 2.9mph /  4.7km/h 4mph /  6.4km/h 75% 0in /  0.0mm 0 W/m2
00:49 39.9 °F /  4.4 °C 32.7 °F /  0.4 °C 30in /  1014.2hPa West 2mph /  3.2km/h 2mph /  3.2km/h 75% 0in /  0.0mm 0 W/m2
00:54 40.5 °F /  4.7 °C 32.9 °F /  0.5 °C 29.9in /  1013.9hPa WNW 0.9mph /  1.4km/h 3mph /  4.8km/h 74% 0in /  0.0mm 0 W/m2
00:59 40.6 °F /  4.8 °C 32.7 °F /  0.4 °C 29.9in /  1013.9hPa West 6mph /  9.7km/h 8mph /  12.9km/h 73% 0in /  0.0mm 0 W/m2
01:04 41.2 °F /  5.1 °C 33.3 °F /  0.7 °C 29.9in /  1013.9hPa West 6mph /  9.7km/h 6mph /  9.7km/h 73% 0in /  0.0mm 0 W/m2
01:09 41.2 °F /  5.1 °C 32.9 °F /  0.5 °C 29.9in /  1013.9hPa WNW 2mph /  3.2km/h 7mph /  11.3km/h 72% 0in /  0.0mm 0 W/m2
01:14 41.4 °F /  5.2 °C 33.1 °F /  0.6 °C 29.9in /  1013.9hPa WNW 2mph /  3.2km/h 7mph /  11.3km/h 72% 0in /  0.0mm 0 W/m2
01:19 41.2 °F /  5.1 °C 32.9 °F /  0.5 °C 29.9in /  1013.9hPa WNW 2mph /  3.2km/h 7mph /  11.3km/h 72% 0in /  0.0mm 0 W/m2
01:24 41.2 °F /  5.1 °C 32.9 °F /  0.5 °C 29.9in /  1013.9hPa NW 2.9mph /  4.7km/h 3mph /  4.8km/h 72% 0in /  0.0mm 0 W/m2
01:29 41.2 °F /  5.1 °C 32.9 °F /  0.5 °C 29.9in /  1013.9hPa NW 2.9mph /  4.7km/h 6mph /  9.7km/h 72% 0in /  0.0mm 0 W/m2
01:34 41.2 °F /  5.1 °C 32.9 °F /  0.5 °C 29.9in /  1013.9hPa WNW 2mph /  3.2km/h 9mph /  14.5km/h 72% 0in /  0.0mm 0 W/m2
01:39 41.2 °F /  5.1 °C 32.9 °F /  0.5 °C 29.9in /  1013.9hPa NW 2mph /  3.2km/h 4mph /  6.4km/h 72% 0in /  0.0mm 0 W/m2
01:45 40.6 °F /  4.8 °C 32.4 °F /  0.2 °C 29.9in /  1013.9hPa NNW 0.9mph /  1.4km/h 9mph /  14.5km/h 72% 0in /  0.0mm 0 W/m2
01:50 40.3 °F /  4.6 °C 32.4 °F /  0.2 °C 29.9in /  1013.9hPa Calm   1mph /  1.6km/h 73% 0in /  0.0mm 0 W/m2
01:55 39.9 °F /  4.4 °C 32.4 °F /  0.2 °C 29.9in /  1013.9hPa WNW 0.9mph /  1.4km/h 3mph /  4.8km/h 74% 0in /  0.0mm 0 W/m2
02:00 40.1 °F /  4.5 °C 32.5 °F /  0.3 °C 29.9in /  1013.9hPa West 6.9mph /  11.1km/h 9mph /  14.5km/h 74% 0in /  0.0mm 0 W/m2
02:05 40.6 °F /  4.8 °C 33.1 °F /  0.6 °C 29.9in /  1013.9hPa NW 2mph /  3.2km/h 8mph /  12.9km/h 74% 0in /  0.0mm 0 W/m2
02:10 40.8 °F /  4.9 °C 32.9 °F /  0.5 °C 29.9in /  1013.9hPa NW 2.9mph /  4.7km/h 9mph /  14.5km/h 73% 0in /  0.0mm 0 W/m2
02:15 41 °F /  5 °C 32.7 °F /  0.4 °C 29.9in /  1013.5hPa West 2mph /  3.2km/h 5mph /  8km/h 72% 0in /  0.0mm 0 W/m2
02:20 41.2 °F /  5.1 °C 32.9 °F /  0.5 °C 29.9in /  1013.5hPa West 4mph /  6.4km/h 8mph /  12.9km/h 72% 0in /  0.0mm 0 W/m2
02:25 41.5 °F /  5.3 °C 33.3 °F /  0.7 °C 29.9in /  1013.5hPa West 2mph /  3.2km/h 8mph /  12.9km/h 72% 0in /  0.0mm 0 W/m2
02:30 41.5 °F /  5.3 °C 32.9 °F /  0.5 °C 29.9in /  1013.5hPa West 6.9mph /  11.1km/h 9mph /  14.5km/h 71% 0in /  0.0mm 0 W/m2
02:35 41.4 °F /  5.2 °C 32.7 °F /  0.4 °C 29.9in /  1013.5hPa WNW 8.9mph /  14.3km/h 9mph /  14.5km/h 71% 0in /  0.0mm 0 W/m2
02:40 41.4 °F /  5.2 °C 32.7 °F /  0.4 °C 29.9in /  1013.5hPa West 8.1mph /  13km/h 8mph /  12.9km/h 71% 0in /  0.0mm 0 W/m2
02:45 41.4 °F /  5.2 °C 32.7 °F /  0.4 °C 29.9in /  1013.5hPa West 8.1mph /  13km/h 10mph /  16.1km/h 71% 0in /  0.0mm 0 W/m2
02:50 41.2 °F /  5.1 °C 32.9 °F /  0.5 °C 29.9in /  1013.5hPa NW 6.9mph /  11.1km/h 10mph /  16.1km/h 72% 0in /  0.0mm 0 W/m2
02:55 41.2 °F /  5.1 °C 32.9 °F /  0.5 °C 29.9in /  1013.5hPa WSW 8.1mph /  13km/h 10mph /  16.1km/h 72% 0in /  0.0mm 0 W/m2
03:00 41 °F /  5 °C 32.7 °F /  0.4 °C 29.9in /  1013.5hPa NW 4.9mph /  7.9km/h 13mph /  20.9km/h 72% 0in /  0.0mm 0 W/m2
03:05 41.2 °F /  5.1 °C 32.9 °F /  0.5 °C 29.9in /  1013.5hPa West 2mph /  3.2km/h 8mph /  12.9km/h 72% 0in /  0.0mm 0 W/m2
03:10 40.8 °F /  4.9 °C 32.5 °F /  0.3 °C 29.9in /  1013.5hPa West 2.9mph /  4.7km/h 7mph /  11.3km/h 72% 0in /  0.0mm 0 W/m2
03:15 40.8 °F /  4.9 °C 32.5 °F /  0.3 °C 29.9in /  1013.5hPa West 8.1mph /  13km/h 10mph /  16.1km/h 72% 0in /  0.0mm 0 W/m2
03:20 40.6 °F /  4.8 °C 32.7 °F /  0.4 °C 29.9in /  1013.5hPa West 6mph /  9.7km/h 9mph /  14.5km/h 73% 0in /  0.0mm 0 W/m2
03:25 40.6 °F /  4.8 °C 32.7 °F /  0.4 °C 29.9in /  1013.5hPa WSW 4mph /  6.4km/h 7mph /  11.3km/h 73% 0in /  0.0mm 0 W/m2
03:30 40.5 °F /  4.7 °C 32.5 °F /  0.3 °C 29.9in /  1013.5hPa WNW 6mph /  9.7km/h 11mph /  17.7km/h 73% 0in /  0.0mm 0 W/m2
03:35 40.5 °F /  4.7 °C 32.5 °F /  0.3 °C 29.9in /  1013.5hPa WNW 4.9mph /  7.9km/h 13mph /  20.9km/h 73% 0in /  0.0mm 0 W/m2
03:40 40.5 °F /  4.7 °C 32.9 °F /  0.5 °C 29.9in /  1013.5hPa WNW 2mph /  3.2km/h 11mph /  17.7km/h 74% 0in /  0.0mm 0 W/m2
03:45 40.5 °F /  4.7 °C 32.9 °F /  0.5 °C 29.9in /  1013.5hPa West 6.9mph /  11.1km/h 13mph /  20.9km/h 74% 0in /  0.0mm 0 W/m2
03:50 40.5 °F /  4.7 °C 32.9 °F /  0.5 °C 29.9in /  1013.5hPa WNW 4.9mph /  7.9km/h 6mph /  9.7km/h 74% 0in /  0.0mm 0 W/m2
03:55 40.6 °F /  4.8 °C 33.3 °F /  0.7 °C 29.9in /  1013.5hPa West 6.9mph /  11.1km/h 8mph /  12.9km/h 75% 0in /  0.0mm 0 W/m2
04:00 40.6 °F /  4.8 °C 33.1 °F /  0.6 °C 29.9in /  1013.5hPa WSW 4mph /  6.4km/h 7mph /  11.3km/h 74% 0in /  0.0mm 0 W/m2
04:05 40.8 °F /  4.9 °C 33.3 °F /  0.7 °C 29.9in /  1013.5hPa West 6.9mph /  11.1km/h 10mph /  16.1km/h 74% 0in /  0.0mm 0 W/m2
04:10 40.6 °F /  4.8 °C 33.1 °F /  0.6 °C 29.9in /  1013.5hPa West 2.9mph /  4.7km/h 8mph /  12.9km/h 74% 0in /  0.0mm 0 W/m2
04:15 40.6 °F /  4.8 °C 33.3 °F /  0.7 °C 29.9in /  1013.5hPa WNW 2.9mph /  4.7km/h 10mph /  16.1km/h 75% 0in /  0.0mm 0 W/m2
04:20 40.6 °F /  4.8 °C 33.3 °F /  0.7 °C 29.9in /  1013.5hPa WNW 6mph /  9.7km/h 8mph /  12.9km/h 75% 0in /  0.0mm 0 W/m2
04:25 40.6 °F /  4.8 °C 33.3 °F /  0.7 °C 29.9in /  1013.5hPa West 4mph /  6.4km/h 5mph /  8km/h 75% 0in /  0.0mm 0 W/m2
04:30 40.6 °F /  4.8 °C 33.3 °F /  0.7 °C 29.9in /  1013.9hPa WNW 2mph /  3.2km/h 2mph /  3.2km/h 75% 0in /  0.0mm 0 W/m2
04:35 40.6 °F /  4.8 °C 33.6 °F /  0.9 °C 29.9in /  1013.5hPa NNW 0.9mph /  1.4km/h 2mph /  3.2km/h 76% 0in /  0.0mm 0 W/m2
04:40 40.6 °F /  4.8 °C 33.6 °F /  0.9 °C 29.9in /  1013.9hPa Calm   2mph /  3.2km/h 76% 0in /  0.0mm 0 W/m2
04:45 40.5 °F /  4.7 °C 33.4 °F /  0.8 °C 29.9in /  1013.9hPa Calm   4mph /  6.4km/h 76% 0in /  0.0mm 0 W/m2
04:50 40.5 °F /  4.7 °C 33.4 °F /  0.8 °C 29.9in /  1013.9hPa NW 2.9mph /  4.7km/h 7mph /  11.3km/h 76% 0in /  0.0mm 0 W/m2
04:55 40.6 °F /  4.8 °C 34 °F /  1.1 °C 29.9in /  1013.9hPa Calm   5mph /  8km/h 77% 0in /  0.0mm 0 W/m2
05:00 40.6 °F /  4.8 °C 34 °F /  1.1 °C 29.9in /  1013.9hPa NNW 2mph /  3.2km/h 2mph /  3.2km/h 77% 0in /  0.0mm 0 W/m2
05:05 40.6 °F /  4.8 °C 34 °F /  1.1 °C 29.9in /  1013.9hPa ESE 2mph /  3.2km/h 6mph /  9.7km/h 77% 0in /  0.0mm 0 W/m2
05:10 40.6 °F /  4.8 °C 34 °F /  1.1 °C 29.9in /  1013.9hPa NNE 2.9mph /  4.7km/h 3mph /  4.8km/h 77% 0in /  0.0mm 0 W/m2
05:15 40.5 °F /  4.7 °C 33.8 °F /  1 °C 30in /  1014.2hPa NNW 2mph /  3.2km/h 5mph /  8km/h 77% 0in /  0.0mm 0 W/m2
05:20 40.3 °F /  4.6 °C 33.6 °F /  0.9 °C 29.9in /  1013.9hPa ESE 2.9mph /  4.7km/h 3mph /  4.8km/h 77% 0in /  0.0mm 0 W/m2
05:25 40.3 °F /  4.6 °C 33.6 °F /  0.9 °C 29.9in /  1013.9hPa NNE 2mph /  3.2km/h 2mph /  3.2km/h 77% 0in /  0.0mm 0 W/m2
05:31 40.1 °F /  4.5 °C 33.4 °F /  0.8 °C 29.9in /  1013.9hPa East 2.9mph /  4.7km/h 3mph /  4.8km/h 77% 0in /  0.0mm 0 W/m2
05:36 39.9 °F /  4.4 °C 33.6 °F /  0.9 °C 29.9in /  1013.9hPa SSE 0.9mph /  1.4km/h 4mph /  6.4km/h 78% 0in /  0.0mm 0 W/m2
05:41 39.9 °F /  4.4 °C 33.6 °F /  0.9 °C 29.9in /  1013.9hPa East 0.9mph /  1.4km/h 3mph /  4.8km/h 78% 0in /  0.0mm 0 W/m2
05:46 39.7 °F /  4.3 °C 33.4 °F /  0.8 °C 29.9in /  1013.9hPa Calm   2mph /  3.2km/h 78% 0in /  0.0mm 0 W/m2
05:51 39.7 °F /  4.3 °C 33.4 °F /  0.8 °C 29.9in /  1013.9hPa WSW 2mph /  3.2km/h 2mph /  3.2km/h 78% 0in /  0.0mm 0 W/m2
05:56 39.7 °F /  4.3 °C 33.8 °F /  1 °C 30in /  1014.2hPa Calm   2mph /  3.2km/h 79% 0in /  0.0mm 0 W/m2
06:01 39.7 °F /  4.3 °C 33.8 °F /  1 °C 30in /  1014.6hPa East 0.9mph /  1.4km/h 3mph /  4.8km/h 79% 0in /  0.0mm 0 W/m2
06:06 39.7 °F /  4.3 °C 33.8 °F /  1 °C 30in /  1014.6hPa Calm   2mph /  3.2km/h 79% 0in /  0.0mm 0 W/m2
06:11 39.7 °F /  4.3 °C 33.8 °F /  1 °C 30in /  1014.6hPa WNW 0.9mph /  1.4km/h 2mph /  3.2km/h 79% 0in /  0.0mm 0 W/m2
06:16 39.7 °F /  4.3 °C 33.8 °F /  1 °C 30in /  1014.6hPa WNW 0.9mph /  1.4km/h 5mph /  8km/h 79% 0in /  0.0mm 0 W/m2
06:21 39.7 °F /  4.3 °C 33.8 °F /  1 °C 30in /  1014.6hPa Calm   1mph /  1.6km/h 79% 0in /  0.0mm 0 W/m2
06:26 39.7 °F /  4.3 °C 33.8 °F /  1 °C 30in /  1014.6hPa Calm   3mph /  4.8km/h 79% 0in /  0.0mm 0 W/m2
06:31 39.7 °F /  4.3 °C 33.8 °F /  1 °C 30in /  1014.6hPa WNW 2.9mph /  4.7km/h 3mph /  4.8km/h 79% 0in /  0.0mm 0 W/m2
06:36 39.7 °F /  4.3 °C 33.8 °F /  1 °C 30in /  1014.6hPa WNW 0.9mph /  1.4km/h 2mph /  3.2km/h 79% 0in /  0.0mm 0 W/m2
06:41 39.6 °F /  4.2 °C 33.6 °F /  0.9 °C 30in /  1014.6hPa Calm   1mph /  1.6km/h 79% 0in /  0.0mm 0 W/m2
06:46 39.6 °F /  4.2 °C 33.6 °F /  0.9 °C 30in /  1014.6hPa NE 0.9mph /  1.4km/h 2mph /  3.2km/h 79% 0in /  0.0mm 0 W/m2
06:51 39.6 °F /  4.2 °C 33.6 °F /  0.9 °C 30in /  1014.6hPa NNW 0.9mph /  1.4km/h 2mph /  3.2km/h 79% 0in /  0.0mm 0 W/m2
06:56 39.6 °F /  4.2 °C 33.6 °F /  0.9 °C 30in /  1014.6hPa Calm   1mph /  1.6km/h 79% 0in /  0.0mm 0 W/m2
07:01 39.6 °F /  4.2 °C 33.6 °F /  0.9 °C 30in /  1014.6hPa Calm   2mph /  3.2km/h 79% 0in /  0.0mm 0 W/m2
07:06 39.6 °F /  4.2 °C 34 °F /  1.1 °C 30in /  1014.9hPa East 2mph /  3.2km/h 3mph /  4.8km/h 80% 0in /  0.0mm 0 W/m2
07:11 39.6 °F /  4.2 °C 34 °F /  1.1 °C 30in /  1014.9hPa East 2mph /  3.2km/h 3mph /  4.8km/h 80% 0in /  0.0mm 0 W/m2
07:16 39.6 °F /  4.2 °C 34 °F /  1.1 °C 30in /  1014.9hPa ENE 0.9mph /  1.4km/h 2mph /  3.2km/h 80% 0in /  0.0mm 0 W/m2
07:21 39.6 °F /  4.2 °C 34 °F /  1.1 °C 30in /  1014.9hPa NE 2.9mph /  4.7km/h 3mph /  4.8km/h 80% 0in /  0.0mm 0 W/m2
07:26 39.6 °F /  4.2 °C 34 °F /  1.1 °C 30in /  1014.9hPa East 0.9mph /  1.4km/h 3mph /  4.8km/h 80% 0in /  0.0mm 5 W/m2
07:31 39.7 °F /  4.3 °C 34.2 °F /  1.2 °C 30in /  1014.9hPa East 2.9mph /  4.7km/h 4mph /  6.4km/h 80% 0in /  0.0mm 5 W/m2
07:36 39.7 °F /  4.3 °C 34.2 °F /  1.2 °C 30in /  1015.2hPa East 0.9mph /  1.4km/h 1mph /  1.6km/h 80% 0in /  0.0mm 9 W/m2
07:41 39.7 °F /  4.3 °C 34.2 °F /  1.2 °C 30in /  1015.2hPa Calm   1mph /  1.6km/h 80% 0in /  0.0mm 14 W/m2
07:46 39.7 °F /  4.3 °C 34.3 °F /  1.3 °C 30in /  1015.2hPa Calm   1mph /  1.6km/h 81% 0in /  0.0mm 18 W/m2
07:51 39.7 °F /  4.3 °C 34.2 °F /  1.2 °C 30in /  1015.2hPa Calm     80% 0in /  0.0mm 21 W/m2
07:56 39.7 °F /  4.3 °C 34.3 °F /  1.3 °C 30in /  1015.2hPa West 2mph /  3.2km/h 2mph /  3.2km/h 81% 0in /  0.0mm 25 W/m2
08:01 39.9 °F /  4.4 °C 34.5 °F /  1.4 °C 30in /  1015.2hPa Calm   2mph /  3.2km/h 81% 0in /  0.0mm 28 W/m2
08:06 39.9 °F /  4.4 °C 34.3 °F /  1.3 °C 30in /  1015.2hPa NE 2.9mph /  4.7km/h 4mph /  6.4km/h 80% 0in /  0.0mm 32 W/m2
08:11 40.1 °F /  4.5 °C 34.5 °F /  1.4 °C 30in /  1015.2hPa East 0.9mph /  1.4km/h 1mph /  1.6km/h 80% 0in /  0.0mm 33 W/m2
08:16 40.3 °F /  4.6 °C 34.5 °F /  1.4 °C 30in /  1015.2hPa ENE 2.9mph /  4.7km/h 3mph /  4.8km/h 80% 0in /  0.0mm 37 W/m2
08:21 40.3 °F /  4.6 °C 34.9 °F /  1.6 °C 30in /  1015.6hPa Calm   2mph /  3.2km/h 81% 0in /  0.0mm 42 W/m2
08:26 40.5 °F /  4.7 °C 35.1 °F /  1.7 °C 30in /  1015.6hPa Calm   1mph /  1.6km/h 81% 0in /  0.0mm 47 W/m2
08:31 40.6 °F /  4.8 °C 35.2 °F /  1.8 °C 30in /  1015.6hPa SW 0.9mph /  1.4km/h 4mph /  6.4km/h 81% 0in /  0.0mm 54 W/m2
08:37 40.6 °F /  4.8 °C 34.9 °F /  1.6 °C 30in /  1015.6hPa West 2.9mph /  4.7km/h 3mph /  4.8km/h 80% 0in /  0.0mm 56 W/m2
08:42 40.6 °F /  4.8 °C 34.9 °F /  1.6 °C 30in /  1015.6hPa SSE 2mph /  3.2km/h 3mph /  4.8km/h 80% 0in /  0.0mm 56 W/m2
08:47 40.8 °F /  4.9 °C 35.1 °F /  1.7 °C 30in /  1015.9hPa West 6mph /  9.7km/h 6mph /  9.7km/h 80% 0in /  0.0mm 40 W/m2
08:52 40.8 °F /  4.9 °C 35.1 °F /  1.7 °C 30in /  1015.6hPa North 0.9mph /  1.4km/h 2mph /  3.2km/h 80% 0in /  0.0mm 49 W/m2
08:57 41 °F /  5 °C 35.2 °F /  1.8 °C 30in /  1015.6hPa WNW 0.9mph /  1.4km/h 3mph /  4.8km/h 80% 0in /  0.0mm 60 W/m2
09:02 41.2 °F /  5.1 °C 35.4 °F /  1.9 °C 30in /  1015.9hPa WNW 0.9mph /  1.4km/h 3mph /  4.8km/h 80% 0in /  0.0mm 62 W/m2
09:07 41.2 °F /  5.1 °C 35.4 °F /  1.9 °C 30in /  1015.6hPa North 0.9mph /  1.4km/h 2mph /  3.2km/h 80% 0in /  0.0mm 81 W/m2
09:12 41.4 °F /  5.2 °C 35.6 °F /  2 °C 30in /  1015.6hPa NNW 2mph /  3.2km/h 4mph /  6.4km/h 80% 0in /  0.0mm 97 W/m2
09:17 41.5 °F /  5.3 °C 35.8 °F /  2.1 °C 30in /  1015.9hPa NW 0.9mph /  1.4km/h 3mph /  4.8km/h 80% 0in /  0.0mm 111 W/m2
09:22 41.5 °F /  5.3 °C 35.6 °F /  2 °C 30in /  1015.9hPa WNW 4mph /  6.4km/h 4mph /  6.4km/h 79% 0in /  0.0mm 97 W/m2
09:27 41.7 °F /  5.4 °C 35.8 °F /  2.1 °C 30in /  1016.3hPa NW 2.9mph /  4.7km/h 5mph /  8km/h 79% 0in /  0.0mm 84 W/m2
09:32 41.9 °F /  5.5 °C 35.8 °F /  2.1 °C 30in /  1016.3hPa WNW 0.9mph /  1.4km/h 7mph /  11.3km/h 79% 0in /  0.0mm 88 W/m2
09:37 42.1 °F /  5.6 °C 36 °F /  2.2 °C 30in /  1016.3hPa WNW 4.9mph /  7.9km/h 5mph /  8km/h 79% 0in /  0.0mm 69 W/m2
09:42 42.1 °F /  5.6 °C 35.8 °F /  2.1 °C 30in /  1016.3hPa West 2.9mph /  4.7km/h 6mph /  9.7km/h 78% 0in /  0.0mm 63 W/m2
09:47 42.3 °F /  5.7 °C 36 °F /  2.2 °C 30in /  1016.3hPa West 0.9mph /  1.4km/h 6mph /  9.7km/h 78% 0in /  0.0mm 70 W/m2
09:52 42.3 °F /  5.7 °C 36.1 °F /  2.3 °C 30in /  1016.3hPa SSW 0.9mph /  1.4km/h 3mph /  4.8km/h 79% 0in /  0.0mm 77 W/m2
09:57 42.4 °F /  5.8 °C 36.3 °F /  2.4 °C 30in /  1016.3hPa NW 0.9mph /  1.4km/h 4mph /  6.4km/h 79% 0in /  0.0mm 113 W/m2
10:02 42.4 °F /  5.8 °C 36.3 °F /  2.4 °C 30in /  1016.3hPa WNW 2.9mph /  4.7km/h 3mph /  4.8km/h 79% 0in /  0.0mm 113 W/m2
10:07 42.8 °F /  6 °C 36.7 °F /  2.6 °C 30in /  1016.3hPa West 2mph /  3.2km/h 4mph /  6.4km/h 79% 0in /  0.0mm 116 W/m2
10:12 43 °F /  6.1 °C 36.9 °F /  2.7 °C 30in /  1016.3hPa NNW 2.9mph /  4.7km/h 3mph /  4.8km/h 79% 0in /  0.0mm 128 W/m2
10:17 43.2 °F /  6.2 °C 37 °F /  2.8 °C 30in /  1016.3hPa Calm   5mph /  8km/h 79% 0in /  0.0mm 142 W/m2
10:22 43.3 °F /  6.3 °C 37.2 °F /  2.9 °C 30in /  1016.6hPa WNW 4mph /  6.4km/h 4mph /  6.4km/h 79% 0in /  0.0mm 149 W/m2
10:27 43.5 °F /  6.4 °C 37 °F /  2.8 °C 30in /  1016.6hPa NW 2mph /  3.2km/h 2mph /  3.2km/h 78% 0in /  0.0mm 158 W/m2
10:32 43.9 °F /  6.6 °C 37.8 °F /  3.2 °C 30in /  1016.6hPa SSW 0.9mph /  1.4km/h 1mph /  1.6km/h 79% 0in /  0.0mm 178 W/m2
10:37 44.1 °F /  6.7 °C 37.6 °F /  3.1 °C 30in /  1016.6hPa WNW 0.9mph /  1.4km/h 3mph /  4.8km/h 78% 0in /  0.0mm 199 W/m2
10:42 44.4 °F /  6.9 °C 37.9 °F /  3.3 °C 30in /  1016.6hPa WNW 4mph /  6.4km/h 4mph /  6.4km/h 78% 0in /  0.0mm 211 W/m2
10:47 44.6 °F /  7 °C 38.1 °F /  3.4 °C 30in /  1016.6hPa NW 2mph /  3.2km/h 6mph /  9.7km/h 78% 0in /  0.0mm 216 W/m2
10:52 45 °F /  7.2 °C 38.5 °F /  3.6 °C 30in /  1016.9hPa WNW 2.9mph /  4.7km/h 4mph /  6.4km/h 78% 0in /  0.0mm 230 W/m2
10:57 45.1 °F /  7.3 °C 38.7 °F /  3.7 °C 30in /  1016.9hPa NW 2.9mph /  4.7km/h 4mph /  6.4km/h 78% 0in /  0.0mm 258 W/m2
11:02 45.1 °F /  7.3 °C 38.3 °F /  3.5 °C 30in /  1016.9hPa WNW 0.9mph /  1.4km/h 4mph /  6.4km/h 77% 0in /  0.0mm 264 W/m2
11:07 45.5 °F /  7.5 °C 39 °F /  3.9 °C 30in /  1016.9hPa Calm   3mph /  4.8km/h 78% 0in /  0.0mm 279 W/m2
11:12 45.9 °F /  7.7 °C 39.4 °F /  4.1 °C 30in /  1016.9hPa NW 4mph /  6.4km/h 10mph /  16.1km/h 78% 0in /  0.0mm 255 W/m2
11:17 45.9 °F /  7.7 °C 39 °F /  3.9 °C 30in /  1016.9hPa NW 4mph /  6.4km/h 6mph /  9.7km/h 77% 0in /  0.0mm 246 W/m2
11:22 46 °F /  7.8 °C 39.2 °F /  4 °C 30in /  1016.9hPa WNW 4mph /  6.4km/h 5mph /  8km/h 77% 0in /  0.0mm 260 W/m2
11:27 46 °F /  7.8 °C 39.6 °F /  4.2 °C 30in /  1016.9hPa NW 2mph /  3.2km/h 7mph /  11.3km/h 78% 0in /  0.0mm 269 W/m2
11:32 46.2 °F /  7.9 °C 39.4 °F /  4.1 °C 30in /  1016.9hPa WSW 2.9mph /  4.7km/h 4mph /  6.4km/h 77% 0in /  0.0mm 285 W/m2
11:37 46.6 °F /  8.1 °C 39.7 °F /  4.3 °C 30in /  1016.9hPa NW 2.9mph /  4.7km/h 3mph /  4.8km/h 77% 0in /  0.0mm 283 W/m2
11:42 46.8 °F /  8.2 °C 39.9 °F /  4.4 °C 30in /  1016.9hPa SW 2.9mph /  4.7km/h 7mph /  11.3km/h 77% 0in /  0.0mm 297 W/m2
11:48 46.9 °F /  8.3 °C 40.1 °F /  4.5 °C 30in /  1016.9hPa West 6mph /  9.7km/h 7mph /  11.3km/h 77% 0in /  0.0mm 311 W/m2
11:53 46.9 °F /  8.3 °C 40.1 °F /  4.5 °C 30in /  1017.3hPa WSW 4.9mph /  7.9km/h 5mph /  8km/h 77% 0in /  0.0mm 330 W/m2
11:58 47.1 °F /  8.4 °C 40.3 °F /  4.6 °C 30in /  1017.3hPa NW 2.9mph /  4.7km/h 7mph /  11.3km/h 77% 0in /  0.0mm 329 W/m2
12:03 47.5 °F /  8.6 °C 40.3 °F /  4.6 °C 30in /  1017.3hPa West 2.9mph /  4.7km/h 8mph /  12.9km/h 76% 0in /  0.0mm 345 W/m2
12:08 47.7 °F /  8.7 °C 40.5 °F /  4.7 °C 30in /  1017.3hPa WNW 4.9mph /  7.9km/h 9mph /  14.5km/h 76% 0in /  0.0mm 359 W/m2
12:13 47.8 °F /  8.8 °C 40.6 °F /  4.8 °C 30in /  1017.3hPa WNW 6mph /  9.7km/h 8mph /  12.9km/h 76% 0in /  0.0mm 355 W/m2
12:18 47.8 °F /  8.8 °C 40.3 °F /  4.6 °C 30in /  1017.3hPa WNW 0.9mph /  1.4km/h 9mph /  14.5km/h 75% 0in /  0.0mm 357 W/m2
12:23 48.2 °F /  9 °C 40.6 °F /  4.8 °C 30in /  1017.3hPa WSW 4.9mph /  7.9km/h 7mph /  11.3km/h 75% 0in /  0.0mm 373 W/m2
12:28 48.6 °F /  9.2 °C 41 °F /  5 °C 30in /  1017.3hPa WNW 2.9mph /  4.7km/h 9mph /  14.5km/h 75% 0in /  0.0mm 399 W/m2
12:33 48.9 °F /  9.4 °C 40.6 °F /  4.8 °C 30in /  1017.3hPa NW 2.9mph /  4.7km/h 9mph /  14.5km/h 73% 0in /  0.0mm 455 W/m2
12:38 49.3 °F /  9.6 °C 41 °F /  5 °C 30in /  1016.9hPa NW 0.9mph /  1.4km/h 2mph /  3.2km/h 73% 0in /  0.0mm 466 W/m2
12:43 49.8 °F /  9.9 °C 41.2 °F /  5.1 °C 30in /  1016.9hPa West 2.9mph /  4.7km/h 4mph /  6.4km/h 72% 0in /  0.0mm 531 W/m2
12:48 50.5 °F /  10.3 °C 41.9 °F /  5.5 °C 30in /  1016.9hPa NNW 0.9mph /  1.4km/h 3mph /  4.8km/h 72% 0in /  0.0mm 656 W/m2
12:54 51.1 °F /  10.6 °C 41.7 °F /  5.4 °C 30in /  1016.9hPa NNW 2mph /  3.2km/h 3mph /  4.8km/h 70% 0in /  0.0mm 441 W/m2
12:59 51.4 °F /  10.8 °C 41.2 °F /  5.1 °C 30in /  1016.9hPa West 2.9mph /  4.7km/h 6mph /  9.7km/h 68% 0in /  0.0mm 587 W/m2
13:04 51.4 °F /  10.8 °C 41.2 °F /  5.1 °C 30in /  1016.9hPa WNW 2.9mph /  4.7km/h 4mph /  6.4km/h 68% 0in /  0.0mm 459 W/m2
13:09 51.3 °F /  10.7 °C 41 °F /  5 °C 30in /  1016.9hPa West 2.9mph /  4.7km/h 11mph /  17.7km/h 68% 0in /  0.0mm 464 W/m2
13:14 51.4 °F /  10.8 °C 41.5 °F /  5.3 °C 30in /  1016.9hPa SSE 2mph /  3.2km/h 7mph /  11.3km/h 69% 0in /  0.0mm 464 W/m2
13:19 52 °F /  11.1 °C 41.7 °F /  5.4 °C 30in /  1016.9hPa WNW 2mph /  3.2km/h 9mph /  14.5km/h 68% 0in /  0.0mm 466 W/m2
13:24 52.5 °F /  11.4 °C 41.2 °F /  5.1 °C 30in /  1016.9hPa WSW 4.9mph /  7.9km/h 9mph /  14.5km/h 65% 0in /  0.0mm 545 W/m2
13:29 52.9 °F /  11.6 °C 41.9 °F /  5.5 °C 30in /  1016.9hPa WNW 2.9mph /  4.7km/h 8mph /  12.9km/h 66% 0in /  0.0mm 469 W/m2
13:34 52.5 °F /  11.4 °C 40.6 °F /  4.8 °C 30in /  1016.9hPa WNW 2.9mph /  4.7km/h 9mph /  14.5km/h 64% 0in /  0.0mm 503 W/m2
13:39 52.3 °F /  11.3 °C 41 °F /  5 °C 30in /  1016.9hPa NNW 2mph /  3.2km/h 8mph /  12.9km/h 65% 0in /  0.0mm 492 W/m2
13:44 52.7 °F /  11.5 °C 41.7 °F /  5.4 °C 30in /  1016.9hPa North 0.9mph /  1.4km/h 4mph /  6.4km/h 66% 0in /  0.0mm 475 W/m2
13:49 53.2 °F /  11.8 °C 41.4 °F /  5.2 °C 30in /  1016.9hPa Calm   7mph /  11.3km/h 64% 0in /  0.0mm 441 W/m2
13:54 53.6 °F /  12 °C 41.4 °F /  5.2 °C 30in /  1016.9hPa NW 2mph /  3.2km/h 8mph /  12.9km/h 63% 0in /  0.0mm 450 W/m2
13:59 53.6 °F /  12 °C 40.5 °F /  4.7 °C 30in /  1016.9hPa West 4mph /  6.4km/h 6mph /  9.7km/h 61% 0in /  0.0mm 362 W/m2
14:04 53.4 °F /  11.9 °C 40.3 °F /  4.6 °C 30in /  1016.9hPa West 2mph /  3.2km/h 11mph /  17.7km/h 61% 0in /  0.0mm 322 W/m2
14:09 53.6 °F /  12 °C 40.8 °F /  4.9 °C 30in /  1016.9hPa NW 2.9mph /  4.7km/h 3mph /  4.8km/h 62% 0in /  0.0mm 211 W/m2
14:14 53.2 °F /  11.8 °C 40.1 °F /  4.5 °C 30in /  1016.9hPa West 8.1mph /  13km/h 9mph /  14.5km/h 61% 0in /  0.0mm 229 W/m2
14:19 53.1 °F /  11.7 °C 40.5 °F /  4.7 °C 30in /  1016.9hPa WNW 4mph /  6.4km/h 7mph /  11.3km/h 62% 0in /  0.0mm 410 W/m2
14:25 53.1 °F /  11.7 °C 39.6 °F /  4.2 °C 30in /  1016.9hPa NW 4.9mph /  7.9km/h 9mph /  14.5km/h 60% 0in /  0.0mm 272 W/m2
14:30 52.9 °F /  11.6 °C 39.7 °F /  4.3 °C 30in /  1016.9hPa NW 2.9mph /  4.7km/h 7mph /  11.3km/h 61% 0in /  0.0mm 243 W/m2
14:35 52.9 °F /  11.6 °C 39 °F /  3.9 °C 30in /  1016.9hPa West 2mph /  3.2km/h 5mph /  8km/h 59% 0in /  0.0mm 183 W/m2
14:40 52.9 °F /  11.6 °C 39 °F /  3.9 °C 30in /  1016.9hPa WNW 4mph /  6.4km/h 7mph /  11.3km/h 59% 0in /  0.0mm 160 W/m2
14:45 52.7 °F /  11.5 °C 38.8 °F /  3.8 °C 30in /  1016.9hPa WNW 2.9mph /  4.7km/h 8mph /  12.9km/h 59% 0in /  0.0mm 227 W/m2
14:50 52.9 °F /  11.6 °C 39 °F /  3.9 °C 30in /  1016.9hPa NW 4mph /  6.4km/h 8mph /  12.9km/h 59% 0in /  0.0mm 297 W/m2
14:55 53.1 °F /  11.7 °C 39.2 °F /  4 °C 30in /  1016.9hPa West 2.9mph /  4.7km/h 8mph /  12.9km/h 59% 0in /  0.0mm 322 W/m2
15:00 53.2 °F /  11.8 °C 39.2 °F /  4 °C 30in /  1016.9hPa West 6.9mph /  11.1km/h 9mph /  14.5km/h 59% 0in /  0.0mm 279 W/m2
15:05 53.2 °F /  11.8 °C 39.2 °F /  4 °C 30in /  1016.9hPa WNW 4.9mph /  7.9km/h 7mph /  11.3km/h 59% 0in /  0.0mm 276 W/m2
15:10 53.2 °F /  11.8 °C 38.5 °F /  3.6 °C 30in /  1016.9hPa West 8.1mph /  13km/h 9mph /  14.5km/h 57% 0in /  0.0mm 276 W/m2
15:15 53.2 °F /  11.8 °C 38.5 °F /  3.6 °C 30in /  1016.9hPa West 2mph /  3.2km/h 4mph /  6.4km/h 57% 0in /  0.0mm 253 W/m2
15:20 53.4 °F /  11.9 °C 38.5 °F /  3.6 °C 30in /  1016.9hPa NW 4mph /  6.4km/h 4mph /  6.4km/h 57% 0in /  0.0mm 206 W/m2
15:25 53.4 °F /  11.9 °C 38.5 °F /  3.6 °C 30in /  1016.9hPa WNW 8.1mph /  13km/h 8mph /  12.9km/h 57% 0in /  0.0mm 132 W/m2
15:30 53.1 °F /  11.7 °C 37.8 °F /  3.2 °C 30in /  1016.9hPa WNW 2.9mph /  4.7km/h 3mph /  4.8km/h 56% 0in /  0.0mm 118 W/m2
15:35 53.1 °F /  11.7 °C 38.3 °F /  3.5 °C 30in /  1017.3hPa WNW 6.9mph /  11.1km/h 13mph /  20.9km/h 57% 0in /  0.0mm 104 W/m2
15:40 52.5 °F /  11.4 °C 38.1 °F /  3.4 °C 30in /  1017.3hPa West 8.1mph /  13km/h 11mph /  17.7km/h 58% 0in /  0.0mm 83 W/m2
15:45 52.3 °F /  11.3 °C 37.9 °F /  3.3 °C 30in /  1017.3hPa West 6.9mph /  11.1km/h 13mph /  20.9km/h 58% 0in /  0.0mm 84 W/m2
15:50 52.2 °F /  11.2 °C 38.3 °F /  3.5 °C 30in /  1017.3hPa WNW 2.9mph /  4.7km/h 4mph /  6.4km/h 59% 0in /  0.0mm 93 W/m2
15:55 52.2 °F /  11.2 °C 38.3 °F /  3.5 °C 30in /  1017.3hPa WNW 4mph /  6.4km/h 13mph /  20.9km/h 59% 0in /  0.0mm 104 W/m2
16:00 52.2 °F /  11.2 °C 38.3 °F /  3.5 °C 30in /  1017.3hPa WNW 8.1mph /  13km/h 10mph /  16.1km/h 59% 0in /  0.0mm 120 W/m2
16:05 52.2 °F /  11.2 °C 38.3 °F /  3.5 °C 30in /  1017.3hPa West 2.9mph /  4.7km/h 11mph /  17.7km/h 59% 0in /  0.0mm 123 W/m2
16:10 52.2 °F /  11.2 °C 38.7 °F /  3.7 °C 30in /  1017.3hPa WNW 6mph /  9.7km/h 9mph /  14.5km/h 60% 0in /  0.0mm 128 W/m2
16:15 52.2 °F /  11.2 °C 38.7 °F /  3.7 °C 30in /  1017.3hPa WNW 2mph /  3.2km/h 8mph /  12.9km/h 60% 0in /  0.0mm 113 W/m2
16:20 52.2 °F /  11.2 °C 38.3 °F /  3.5 °C 30in /  1017.3hPa WNW 6.9mph /  11.1km/h 10mph /  16.1km/h 59% 0in /  0.0mm 109 W/m2
16:25 52.2 °F /  11.2 °C 38.7 °F /  3.7 °C 30in /  1017.3hPa NNW 2.9mph /  4.7km/h 8mph /  12.9km/h 60% 0in /  0.0mm 105 W/m2
16:30 52.2 °F /  11.2 °C 38.7 °F /  3.7 °C 30in /  1017.3hPa WNW 4mph /  6.4km/h 7mph /  11.3km/h 60% 0in /  0.0mm 104 W/m2
16:35 52.2 °F /  11.2 °C 38.7 °F /  3.7 °C 30in /  1017.3hPa WSW 4mph /  6.4km/h 8mph /  12.9km/h 60% 0in /  0.0mm 109 W/m2
16:40 52.2 °F /  11.2 °C 38.3 °F /  3.5 °C 30in /  1017.3hPa WNW 4mph /  6.4km/h 6mph /  9.7km/h 59% 0in /  0.0mm 121 W/m2
16:45 52.2 °F /  11.2 °C 37.8 °F /  3.2 °C 30in /  1017.3hPa NW 2.9mph /  4.7km/h 9mph /  14.5km/h 58% 0in /  0.0mm 139 W/m2
16:50 52.2 °F /  11.2 °C 37.4 °F /  3 °C 30in /  1017.3hPa WNW 11mph /  17.7km/h 11mph /  17.7km/h 57% 0in /  0.0mm 155 W/m2
16:55 52.2 °F /  11.2 °C 37.4 °F /  3 °C 30in /  1017.3hPa NW 4mph /  6.4km/h 8mph /  12.9km/h 57% 0in /  0.0mm 151 W/m2
17:00 52.2 °F /  11.2 °C 37.4 °F /  3 °C 30in /  1017.3hPa NW 4mph /  6.4km/h 10mph /  16.1km/h 57% 0in /  0.0mm 137 W/m2
17:05 52 °F /  11.1 °C 37.2 °F /  2.9 °C 30in /  1017.3hPa WNW 4mph /  6.4km/h 8mph /  12.9km/h 57% 0in /  0.0mm 118 W/m2
17:10 52 °F /  11.1 °C 37.2 °F /  2.9 °C 30in /  1017.3hPa WSW 4.9mph /  7.9km/h 8mph /  12.9km/h 57% 0in /  0.0mm 93 W/m2
17:15 52 °F /  11.1 °C 37.6 °F /  3.1 °C 30in /  1017.3hPa WNW 2.9mph /  4.7km/h 6mph /  9.7km/h 58% 0in /  0.0mm 84 W/m2
17:20 52 °F /  11.1 °C 37.6 °F /  3.1 °C 30in /  1017.3hPa WNW 4mph /  6.4km/h 8mph /  12.9km/h 58% 0in /  0.0mm 95 W/m2
17:25 51.8 °F /  11 °C 37.6 °F /  3.1 °C 30.1in /  1017.6hPa West 2mph /  3.2km/h 5mph /  8km/h 58% 0in /  0.0mm 98 W/m2
17:30 51.8 °F /  11 °C 37.9 °F /  3.3 °C 30.1in /  1017.6hPa West 2mph /  3.2km/h 7mph /  11.3km/h 59% 0in /  0.0mm 91 W/m2
17:35 51.8 °F /  11 °C 37.9 °F /  3.3 °C 30.1in /  1017.6hPa NNW 2.9mph /  4.7km/h 8mph /  12.9km/h 59% 0in /  0.0mm 90 W/m2
17:40 51.6 °F /  10.9 °C 37.8 °F /  3.2 °C 30.1in /  1017.6hPa SW 2.9mph /  4.7km/h 7mph /  11.3km/h 59% 0in /  0.0mm 90 W/m2
17:45 51.6 °F /  10.9 °C 38.1 °F /  3.4 °C 30in /  1017.3hPa NNW 2mph /  3.2km/h 8mph /  12.9km/h 60% 0in /  0.0mm 79 W/m2
17:50 51.8 °F /  11 °C 38.3 °F /  3.5 °C 30.1in /  1017.6hPa West 2.9mph /  4.7km/h 6mph /  9.7km/h 60% 0in /  0.0mm 90 W/m2
17:55 51.6 °F /  10.9 °C 38.1 °F /  3.4 °C 30.1in /  1017.6hPa NW 2mph /  3.2km/h 8mph /  12.9km/h 60% 0in /  0.0mm 109 W/m2
18:00 51.8 °F /  11 °C 37.9 °F /  3.3 °C 30.1in /  1017.6hPa WNW 4.9mph /  7.9km/h 7mph /  11.3km/h 59% 0in /  0.0mm 127 W/m2
18:05 52 °F /  11.1 °C 38.5 °F /  3.6 °C 30.1in /  1017.6hPa WNW 2mph /  3.2km/h 8mph /  12.9km/h 60% 0in /  0.0mm 137 W/m2
18:10 52 °F /  11.1 °C 37.6 °F /  3.1 °C 30.1in /  1017.6hPa WNW 6mph /  9.7km/h 8mph /  12.9km/h 58% 0in /  0.0mm 146 W/m2
18:15 52.2 °F /  11.2 °C 37.8 °F /  3.2 °C 30.1in /  1017.6hPa NW 2mph /  3.2km/h 4mph /  6.4km/h 58% 0in /  0.0mm 139 W/m2
18:20 52.3 °F /  11.3 °C 37.9 °F /  3.3 °C 30.1in /  1017.6hPa West 2.9mph /  4.7km/h 10mph /  16.1km/h 58% 0in /  0.0mm 135 W/m2
18:25 52.3 °F /  11.3 °C 37.9 °F /  3.3 °C 30.1in /  1017.6hPa WNW 2.9mph /  4.7km/h 4mph /  6.4km/h 58% 0in /  0.0mm 137 W/m2
18:30 52.5 °F /  11.4 °C 38.1 °F /  3.4 °C 30.1in /  1018.0hPa NW 2.9mph /  4.7km/h 8mph /  12.9km/h 58% 0in /  0.0mm 134 W/m2
18:35 52.5 °F /  11.4 °C 37.8 °F /  3.2 °C 30.1in /  1018.0hPa WNW 2mph /  3.2km/h 6mph /  9.7km/h 57% 0in /  0.0mm 139 W/m2
18:40 52.3 °F /  11.3 °C 37.9 °F /  3.3 °C 30.1in /  1018.0hPa WNW 2mph /  3.2km/h 8mph /  12.9km/h 58% 0in /  0.0mm 120 W/m2
18:45 52.3 °F /  11.3 °C 37.6 °F /  3.1 °C 30.1in /  1017.6hPa West 4mph /  6.4km/h 6mph /  9.7km/h 57% 0in /  0.0mm 109 W/m2
18:50 52.3 °F /  11.3 °C 37.6 °F /  3.1 °C 30.1in /  1018.0hPa WNW 0.9mph /  1.4km/h 8mph /  12.9km/h 57% 0in /  0.0mm 91 W/m2
18:55 52.2 °F /  11.2 °C 37.4 °F /  3 °C 30.1in /  1018.0hPa WSW 4mph /  6.4km/h 7mph /  11.3km/h 57% 0in /  0.0mm 95 W/m2
19:00 52.2 °F /  11.2 °C 37.4 °F /  3 °C 30.1in /  1018.0hPa Calm   2mph /  3.2km/h 57% 0in /  0.0mm 83 W/m2
19:06 52.3 °F /  11.3 °C 37.6 °F /  3.1 °C 30.1in /  1018.0hPa WNW 2.9mph /  4.7km/h 7mph /  11.3km/h 57% 0in /  0.0mm 72 W/m2
19:11 52.2 °F /  11.2 °C 37.4 °F /  3 °C 30.1in /  1018.0hPa West 2.9mph /  4.7km/h 4mph /  6.4km/h 57% 0in /  0.0mm 70 W/m2
19:16 52.2 °F /  11.2 °C 37.4 °F /  3 °C 30.1in /  1018.0hPa West 4mph /  6.4km/h 7mph /  11.3km/h 57% 0in /  0.0mm 62 W/m2
19:21 52 °F /  11.1 °C 37.2 °F /  2.9 °C 30.1in /  1018.0hPa West 0.9mph /  1.4km/h 3mph /  4.8km/h 57% 0in /  0.0mm 42 W/m2
19:26 51.8 °F /  11 °C 37.6 °F /  3.1 °C 30.1in /  1018.0hPa NW 4.9mph /  7.9km/h 6mph /  9.7km/h 58% 0in /  0.0mm 32 W/m2
19:31 51.6 °F /  10.9 °C 37.4 °F /  3 °C 30.1in /  1018.0hPa WNW 0.9mph /  1.4km/h 4mph /  6.4km/h 58% 0in /  0.0mm 21 W/m2
19:36 51.6 °F /  10.9 °C 36.9 °F /  2.7 °C 30.1in /  1018.3hPa WNW 4mph /  6.4km/h 6mph /  9.7km/h 57% 0in /  0.0mm 19 W/m2
19:41 51.4 °F /  10.8 °C 37.2 °F /  2.9 °C 30.1in /  1018.3hPa WSW 4.9mph /  7.9km/h 6mph /  9.7km/h 58% 0in /  0.0mm 14 W/m2
19:46 51.4 °F /  10.8 °C 36.7 °F /  2.6 °C 30.1in /  1018.3hPa West 2.9mph /  4.7km/h 6mph /  9.7km/h 57% 0in /  0.0mm 12 W/m2
19:51 51.3 °F /  10.7 °C 37 °F /  2.8 °C 30.1in /  1018.3hPa West 2mph /  3.2km/h 4mph /  6.4km/h 58% 0in /  0.0mm 9 W/m2
19:56 51.3 °F /  10.7 °C 37 °F /  2.8 °C 30.1in /  1018.3hPa West 2mph /  3.2km/h 4mph /  6.4km/h 58% 0in /  0.0mm 5 W/m2
20:01 51.1 °F /  10.6 °C 36.3 °F /  2.4 °C 30.1in /  1018.3hPa WNW 0.9mph /  1.4km/h 4mph /  6.4km/h 57% 0in /  0.0mm 5 W/m2
20:06 51.1 °F /  10.6 °C 36.3 °F /  2.4 °C 30.1in /  1018.3hPa WNW 2.9mph /  4.7km/h 4mph /  6.4km/h 57% 0in /  0.0mm 0 W/m2
20:11 51.1 °F /  10.6 °C 36 °F /  2.2 °C 30.1in /  1018.3hPa West 0.9mph /  1.4km/h 4mph /  6.4km/h 56% 0in /  0.0mm 0 W/m2
20:16 50.9 °F /  10.5 °C 35.8 °F /  2.1 °C 30.1in /  1018.3hPa WNW 0.9mph /  1.4km/h 3mph /  4.8km/h 56% 0in /  0.0mm 0 W/m2
20:21 50.9 °F /  10.5 °C 35.8 °F /  2.1 °C 30.1in /  1018.3hPa WNW 0.9mph /  1.4km/h 2mph /  3.2km/h 56% 0in /  0.0mm 0 W/m2
20:26 50.7 °F /  10.4 °C 35.6 °F /  2 °C 30.1in /  1018.6hPa West 0.9mph /  1.4km/h 2mph /  3.2km/h 56% 0in /  0.0mm 0 W/m2
20:31 50.5 °F /  10.3 °C 35.4 °F /  1.9 °C 30.1in /  1018.6hPa NW 2mph /  3.2km/h 2mph /  3.2km/h 56% 0in /  0.0mm 0 W/m2
20:36 50.5 °F /  10.3 °C 35.4 °F /  1.9 °C 30.1in /  1018.6hPa Calm   2mph /  3.2km/h 56% 0in /  0.0mm 0 W/m2
20:41 50.5 °F /  10.3 °C 36 °F /  2.2 °C 30.1in /  1018.6hPa West 2mph /  3.2km/h 2mph /  3.2km/h 57% 0in /  0.0mm 0 W/m2
20:46 50.4 °F /  10.2 °C 35.8 °F /  2.1 °C 30.1in /  1019.0hPa WNW 0.9mph /  1.4km/h 2mph /  3.2km/h 57% 0in /  0.0mm 0 W/m2
20:51 50.4 °F /  10.2 °C 35.8 °F /  2.1 °C 30.1in /  1019.0hPa WNW 2.9mph /  4.7km/h 4mph /  6.4km/h 57% 0in /  0.0mm 0 W/m2
20:56 50.5 °F /  10.3 °C 35.4 °F /  1.9 °C 30.1in /  1019.0hPa NW 4mph /  6.4km/h 7mph /  11.3km/h 56% 0in /  0.0mm 0 W/m2
21:01 50.5 °F /  10.3 °C 35.4 °F /  1.9 °C 30.1in /  1019.0hPa WNW 2mph /  3.2km/h 3mph /  4.8km/h 56% 0in /  0.0mm 0 W/m2
21:06 50.4 °F /  10.2 °C 35.2 °F /  1.8 °C 30.1in /  1019.0hPa WNW 4mph /  6.4km/h 4mph /  6.4km/h 56% 0in /  0.0mm 0 W/m2
21:11 50.4 °F /  10.2 °C 35.2 °F /  1.8 °C 30.1in /  1019.3hPa WNW 2mph /  3.2km/h 7mph /  11.3km/h 56% 0in /  0.0mm 0 W/m2
21:16 50.4 °F /  10.2 °C 34.9 °F /  1.6 °C 30.1in /  1019.3hPa West 6mph /  9.7km/h 6mph /  9.7km/h 55% 0in /  0.0mm 0 W/m2
21:21 50.4 °F /  10.2 °C 35.2 °F /  1.8 °C 30.1in /  1019.3hPa WNW 4mph /  6.4km/h 6mph /  9.7km/h 56% 0in /  0.0mm 0 W/m2
21:26 50.2 °F /  10.1 °C 35.1 °F /  1.7 °C 30.1in /  1019.3hPa WNW 2mph /  3.2km/h 4mph /  6.4km/h 56% 0in /  0.0mm 0 W/m2
21:31 50.2 °F /  10.1 °C 35.1 °F /  1.7 °C 30.1in /  1019.3hPa West 2mph /  3.2km/h 6mph /  9.7km/h 56% 0in /  0.0mm 0 W/m2
21:36 50 °F /  10 °C 34.9 °F /  1.6 °C 30.1in /  1019.3hPa West 2mph /  3.2km/h 3mph /  4.8km/h 56% 0in /  0.0mm 0 W/m2
21:41 49.8 °F /  9.9 °C 35.2 °F /  1.8 °C 30.1in /  1019.3hPa Calm   2mph /  3.2km/h 57% 0in /  0.0mm 0 W/m2
21:46 49.6 °F /  9.8 °C 35.4 °F /  1.9 °C 30.1in /  1019.3hPa Calm   2mph /  3.2km/h 58% 0in /  0.0mm 0 W/m2
21:51 49.5 °F /  9.7 °C 35.2 °F /  1.8 °C 30.1in /  1019.3hPa West 0.9mph /  1.4km/h 2mph /  3.2km/h 58% 0in /  0.0mm 0 W/m2
21:56 49.3 °F /  9.6 °C 35.6 °F /  2 °C 30.1in /  1019.3hPa West 0.9mph /  1.4km/h 1mph /  1.6km/h 59% 0in /  0.0mm 0 W/m2
22:01 48.9 °F /  9.4 °C 35.6 °F /  2 °C 30.1in /  1019.6hPa Calm     60% 0in /  0.0mm 0 W/m2
22:06 48.7 °F /  9.3 °C 36 °F /  2.2 °C 30.1in /  1019.6hPa Calm     61% 0in /  0.0mm 0 W/m2
22:11 48.2 °F /  9 °C 35.8 °F /  2.1 °C 30.1in /  1019.6hPa Calm     62% 0in /  0.0mm 0 W/m2
22:16 47.7 °F /  8.7 °C 35.2 °F /  1.8 °C 30.1in /  1019.6hPa Calm   2mph /  3.2km/h 62% 0in /  0.0mm 0 W/m2
22:21 47.1 °F /  8.4 °C 35.2 °F /  1.8 °C 30.1in /  1019.6hPa Calm     63% 0in /  0.0mm 0 W/m2
22:26 46.6 °F /  8.1 °C 35.1 °F /  1.7 °C 30.1in /  1019.6hPa Calm   2mph /  3.2km/h 64% 0in /  0.0mm 0 W/m2
22:31 46 °F /  7.8 °C 34.9 °F /  1.6 °C 30.1in /  1019.6hPa Calm     65% 0in /  0.0mm 0 W/m2
22:36 45.5 °F /  7.5 °C 34.9 °F /  1.6 °C 30.1in /  1019.6hPa Calm     66% 0in /  0.0mm 0 W/m2
22:41 45 °F /  7.2 °C 34.7 °F /  1.5 °C 30.1in /  1019.6hPa West 0.9mph /  1.4km/h 1mph /  1.6km/h 67% 0in /  0.0mm 0 W/m2
22:46 44.4 °F /  6.9 °C 34.5 °F /  1.4 °C 30.1in /  1020.0hPa Calm   2mph /  3.2km/h 68% 0in /  0.0mm 0 W/m2
22:51 44.1 °F /  6.7 °C 34.5 °F /  1.4 °C 30.1in /  1020.0hPa Calm     69% 0in /  0.0mm 0 W/m2
22:56 43.5 °F /  6.4 °C 34.3 °F /  1.3 °C 30.1in /  1020.0hPa Calm   2mph /  3.2km/h 70% 0in /  0.0mm 0 W/m2
23:01 43.3 °F /  6.3 °C 34.2 °F /  1.2 °C 30.1in /  1020.0hPa Calm   1mph /  1.6km/h 70% 0in /  0.0mm 0 W/m2
23:06 43 °F /  6.1 °C 34.2 °F /  1.2 °C 30.1in /  1020.0hPa Calm   1mph /  1.6km/h 71% 0in /  0.0mm 0 W/m2
23:11 42.6 °F /  5.9 °C 34.2 °F /  1.2 °C 30.1in /  1020.0hPa Calm     72% 0in /  0.0mm 0 W/m2
23:17 42.4 °F /  5.8 °C 34 °F /  1.1 °C 30.1in /  1020.0hPa Calm   1mph /  1.6km/h 72% 0in /  0.0mm 0 W/m2
23:22 42.3 °F /  5.7 °C 34.2 °F /  1.2 °C 30.1in /  1020.3hPa Calm     73% 0in /  0.0mm 0 W/m2
23:27 42.1 °F /  5.6 °C 34.3 °F /  1.3 °C 30.1in /  1020.3hPa Calm     74% 0in /  0.0mm 0 W/m2
23:32 41.7 °F /  5.4 °C 34 °F /  1.1 °C 30.1in /  1020.3hPa Calm     74% 0in /  0.0mm 0 W/m2
23:37 41.5 °F /  5.3 °C 34.2 °F /  1.2 °C 30.1in /  1020.3hPa Calm     75% 0in /  0.0mm 0 W/m2
23:42 41.4 °F /  5.2 °C 34.3 °F /  1.3 °C 30.1in /  1020.3hPa Calm     76% 0in /  0.0mm 0 W/m2
23:47 41.2 °F /  5.1 °C 34.2 °F /  1.2 °C 30.1in /  1020.3hPa Calm     76% 0in /  0.0mm 0 W/m2
23:52 40.8 °F /  4.9 °C 34.2 °F /  1.2 °C 30.1in /  1020.3hPa Calm     77% 0in /  0.0mm 0 W/m2
23:57 40.6 °F /  4.8 °C 34 °F /  1.1 °C 30.1in /  1020.3hPa Calm     77% 0in /  0.0mm 0 W/m2
Juneau County Weather
Compliments of Weather Underground - 2 mb